Time;durP1;ratioP1;P1;durP2;ratioP2;P2;SDS_P1;SDS_P2;PMS_P1;PMS_P2;Temp;Humidity;BMP_temperature;BMP_pressure;BME280_temperature;BME280_humidity;BME280_pressure;Samples;Min_cycle;Max_cycle;Signal;HPM_P1;HPM_P2
2022/10/22 00:01:43;;;;;;;;;;;13.50;99.90;;;;;;5066728;28;19928;-76
2022/10/22 00:04:08;;;;;;;;;;;13.50;99.90;;;;;;5083403;28;19908;-75
2022/10/22 00:06:34;;;;;;;;;;;13.50;99.90;;;;;;5083158;28;19987;-75
2022/10/22 00:08:59;;;;;;;;;;;13.60;99.90;;;;;;5084458;28;19912;-75
2022/10/22 00:11:25;;;;;;;;;;;13.60;99.90;;;;;;5084555;28;19915;-75
2022/10/22 00:13:51;;;;;;;;;;;13.60;99.90;;;;;;5083205;28;19908;-75
2022/10/22 00:16:16;;;;;;;;;;;13.60;99.90;;;;;;5083850;28;19954;-75
2022/10/22 00:18:42;;;;;;;;;;;13.60;99.90;;;;;;5083050;28;19924;-75
2022/10/22 00:21:08;;;;;;;;;;;13.60;99.90;;;;;;5084368;28;19928;-76
2022/10/22 00:23:33;;;;;;;;;;;13.60;99.90;;;;;;5082693;28;19939;-75
2022/10/22 00:25:59;;;;;;;;;;;13.60;99.90;;;;;;5083765;28;20134;-76
2022/10/22 00:28:25;;;;;;;;;;;13.60;99.90;;;;;;5083898;28;20084;-76
2022/10/22 00:30:57;;;;;;;;;;;13.60;99.90;;;;;;5083725;28;20103;-76
2022/10/22 00:33:23;;;;;;;;;;;13.60;99.90;;;;;;5083855;28;19916;-76
2022/10/22 00:35:49;;;;;;;;;;;13.60;99.90;;;;;;5082792;28;19983;-75
2022/10/22 00:38:14;;;;;;;;;;;13.60;99.90;;;;;;5083462;28;19920;-76
2022/10/22 00:40:40;;;;;;;;;;;13.60;99.90;;;;;;5082799;28;19908;-76
2022/10/22 00:43:10;;;;;;;;;;;13.60;99.90;;;;;;5083873;28;19909;-76
2022/10/22 00:45:35;;;;;;;;;;;13.60;99.90;;;;;;5082481;28;19908;-76
2022/10/22 00:48:04;;;;;;;;;;;13.60;99.90;;;;;;5082181;28;19942;-75
2022/10/22 00:50:33;;;;;;;;;;;13.60;99.90;;;;;;5082591;28;19930;-76
2022/10/22 00:52:59;;;;;;;;;;;13.60;99.90;;;;;;5083852;28;20136;-76
2022/10/22 00:55:25;;;;;;;;;;;13.60;99.90;;;;;;5082607;28;19930;-75
2022/10/22 00:57:51;;;;;;;;;;;13.60;99.90;;;;;;5082143;28;19912;-75
2022/10/22 01:00:17;;;;;;;;;;;13.60;99.90;;;;;;5082103;28;20142;-76
2022/10/22 01:02:43;;;;;;;;;;;13.60;99.90;;;;;;5083441;28;19917;-75
2022/10/22 01:05:09;;;;;;;;;;;13.60;99.90;;;;;;5082389;28;19931;-76
2022/10/22 01:07:44;;;;;;;;;;;13.60;99.90;;;;;;5083318;28;19958;-76
2022/10/22 01:10:24;;;;;;;;;;;13.60;99.90;;;;;;5082299;28;20108;-76
2022/10/22 01:12:58;;;;;;;;;;;13.60;99.90;;;;;;5083201;28;19931;-75
2022/10/22 01:15:42;;;;;;;;;;;13.60;99.90;;;;;;5081872;28;19915;-76
2022/10/22 01:18:27;;;;;;;;;;;13.60;99.90;;;;;;5081662;28;19916;-76
2022/10/22 01:21:08;;;;;;;;;;;13.60;99.90;;;;;;5081957;28;19923;-76
2022/10/22 01:24:07;;;;;;;;;;;13.60;99.90;;;;;;5082994;28;20274;-75
2022/10/22 01:26:52;;;;;;;;;;;13.60;99.90;;;;;;5082076;28;20190;-76
2022/10/22 01:29:19;;;;;;;;;;;13.60;99.90;;;;;;5081996;28;19909;-76
2022/10/22 01:31:50;;;;;;;;;;;13.60;99.90;;;;;;5081829;28;19908;-76
2022/10/22 01:34:16;;;;;;;;;;;13.70;99.90;;;;;;5081778;28;19983;-76
2022/10/22 01:36:42;;;;;;;;;;;13.70;99.90;;;;;;5080087;28;20229;-76
2022/10/22 01:39:08;;;;;;;;;;;13.70;99.90;;;;;;5064871;28;19970;-75
2022/10/22 01:41:34;;;;;;;;;;;13.70;99.90;;;;;;5081738;28;20196;-77
2022/10/22 01:43:59;;;;;;;;;;;13.70;99.90;;;;;;5081394;28;19942;-77
2022/10/22 01:46:26;;;;;;;;;;;13.70;99.90;;;;;;5080790;28;19954;-76
2022/10/22 01:49:15;;;;;;;;;;;13.70;99.90;;;;;;5064675;28;19983;-77
2022/10/22 01:52:02;;;;;;;;;;;13.80;99.90;;;;;;5081701;28;19931;-76
2022/10/22 01:54:43;;;;;;;;;;;13.70;99.90;;;;;;5081629;28;20088;-76
2022/10/22 01:57:23;;;;;;;;;;;13.70;99.90;;;;;;5081273;28;19909;-76
2022/10/22 02:00:00;;;;;;;;;;;13.80;99.90;;;;;;5081249;28;19916;-76
2022/10/22 02:02:44;;;;;;;;;;;13.80;99.90;;;;;;5081531;28;19912;-76
2022/10/22 02:05:12;;;;;;;;;;;13.80;99.90;;;;;;5081408;28;19984;-76
2022/10/22 02:07:42;;;;;;;;;;;13.80;99.90;;;;;;5082100;28;19913;-76
2022/10/22 02:10:08;;;;;;;;;;;13.80;99.90;;;;;;5081961;28;19908;-76
2022/10/22 02:12:33;;;;;;;;;;;13.80;99.90;;;;;;5081311;28;19949;-76
2022/10/22 02:14:59;;;;;;;;;;;13.80;99.90;;;;;;5064232;28;20241;-76
2022/10/22 02:17:25;;;;;;;;;;;13.80;99.90;;;;;;5081101;28;19909;-76
2022/10/22 02:19:53;;;;;;;;;;;13.80;99.90;;;;;;5081634;28;19912;-76
2022/10/22 02:22:19;;;;;;;;;;;13.80;99.90;;;;;;5064436;28;19986;-76
2022/10/22 02:24:45;;;;;;;;;;;13.80;99.90;;;;;;5081406;28;19909;-76
2022/10/22 02:27:36;;;;;;;;;;;13.80;99.90;;;;;;5081014;28;19912;-76
2022/10/22 02:30:18;;;;;;;;;;;13.80;99.90;;;;;;5081213;28;19916;-76
2022/10/22 02:33:00;;;;;;;;;;;13.80;99.90;;;;;;5081277;28;20199;-76
2022/10/22 02:35:26;;;;;;;;;;;13.80;99.90;;;;;;5081157;28;20454;-76
2022/10/22 02:37:52;;;;;;;;;;;13.80;99.90;;;;;;5064192;28;19927;-76
2022/10/22 02:40:18;;;;;;;;;;;13.70;99.90;;;;;;5064492;28;19908;-76
2022/10/22 02:42:45;;;;;;;;;;;13.70;99.90;;;;;;5081278;28;19944;-76
2022/10/22 02:45:10;;;;;;;;;;;13.70;99.90;;;;;;5064594;28;19915;-76
2022/10/22 02:47:36;;;;;;;;;;;13.70;99.90;;;;;;5082292;28;19925;-76
2022/10/22 02:50:02;;;;;;;;;;;13.70;99.90;;;;;;5068211;28;20142;-76
2022/10/22 02:52:28;;;;;;;;;;;13.60;99.90;;;;;;5084810;28;19943;-76
2022/10/22 02:54:53;;;;;;;;;;;13.70;99.90;;;;;;5085888;28;19908;-76
2022/10/22 02:57:19;;;;;;;;;;;13.70;99.90;;;;;;5085415;28;19919;-76
2022/10/22 02:59:45;;;;;;;;;;;13.70;99.90;;;;;;5084170;28;19915;-76
2022/10/22 03:02:10;;;;;;;;;;;13.70;99.90;;;;;;5093017;28;20230;-76
2022/10/22 03:04:36;;;;;;;;;;;13.60;99.90;;;;;;5104820;28;20211;-76
2022/10/22 03:07:01;;;;;;;;;;;13.60;99.90;;;;;;5105502;28;20112;-76
2022/10/22 03:09:27;;;;;;;;;;;13.60;99.90;;;;;;5105913;28;19908;-75
2022/10/22 03:11:53;;;;;;;;;;;13.50;99.90;;;;;;5105823;28;19957;-76
2022/10/22 03:14:18;;;;;;;;;;;13.60;99.90;;;;;;5105431;28;19946;-76
2022/10/22 03:16:44;;;;;;;;;;;13.60;99.90;;;;;;5105353;28;19908;-76
2022/10/22 03:19:10;;;;;;;;;;;13.60;99.90;;;;;;5105552;28;19915;-76
2022/10/22 03:21:48;;;;;;;;;;;13.50;99.90;;;;;;5105606;28;19940;-76
2022/10/22 03:24:17;;;;;;;;;;;13.50;99.90;;;;;;5104486;28;19908;-76
2022/10/22 03:26:42;;;;;;;;;;;13.50;99.90;;;;;;5103849;28;19912;-76
2022/10/22 03:29:09;;;;;;;;;;;13.50;99.90;;;;;;5084754;28;19908;-76
2022/10/22 03:31:35;;;;;;;;;;;13.50;99.90;;;;;;5083810;28;19915;-76
2022/10/22 03:34:01;;;;;;;;;;;13.60;99.90;;;;;;5084991;28;19987;-76
2022/10/22 03:36:26;;;;;;;;;;;13.50;99.90;;;;;;5084787;28;19916;-76
2022/10/22 03:38:52;;;;;;;;;;;13.60;99.90;;;;;;5083699;28;20115;-76
2022/10/22 03:41:17;;;;;;;;;;;13.60;99.90;;;;;;5083785;28;19912;-76
2022/10/22 03:43:48;;;;;;;;;;;13.60;99.90;;;;;;5083764;28;19923;-76
2022/10/22 03:46:14;;;;;;;;;;;13.60;99.90;;;;;;5084279;28;20146;-76
2022/10/22 03:48:40;;;;;;;;;;;13.60;99.90;;;;;;5083638;28;19912;-76
2022/10/22 03:51:05;;;;;;;;;;;13.60;99.90;;;;;;5084769;28;19909;-76
2022/10/22 03:53:31;;;;;;;;;;;13.50;99.90;;;;;;5083602;28;19924;-76
2022/10/22 03:55:57;;;;;;;;;;;13.60;99.90;;;;;;5083312;28;19944;-76
2022/10/22 03:58:22;;;;;;;;;;;13.60;99.90;;;;;;5083869;28;20157;-76
2022/10/22 04:00:48;;;;;;;;;;;13.60;99.90;;;;;;5065893;28;20111;-76
2022/10/22 04:03:14;;;;;;;;;;;13.60;99.90;;;;;;5084521;28;19908;-76
2022/10/22 04:05:39;;;;;;;;;;;13.50;99.90;;;;;;5084356;28;19916;-76
2022/10/22 04:08:05;;;;;;;;;;;13.50;99.90;;;;;;5083919;28;19913;-76
2022/10/22 04:10:30;;;;;;;;;;;13.50;99.90;;;;;;5083072;28;19909;-75
2022/10/22 04:12:56;;;;;;;;;;;13.40;99.90;;;;;;5083122;28;19927;-75
2022/10/22 04:15:22;;;;;;;;;;;13.40;99.90;;;;;;5083944;28;19908;-75
2022/10/22 04:17:48;;;;;;;;;;;13.40;99.90;;;;;;5083716;28;19908;-76
2022/10/22 04:20:13;;;;;;;;;;;13.40;99.90;;;;;;5082938;28;19908;-75
2022/10/22 04:22:39;;;;;;;;;;;13.40;99.90;;;;;;5084057;28;19912;-76
2022/10/22 04:25:05;;;;;;;;;;;13.40;99.90;;;;;;5082701;28;19908;-76
2022/10/22 04:27:31;;;;;;;;;;;13.40;99.90;;;;;;5082401;28;19950;-76
2022/10/22 04:29:57;;;;;;;;;;;13.30;99.90;;;;;;5082092;28;20123;-75
2022/10/22 04:32:23;;;;;;;;;;;13.40;99.90;;;;;;5066152;28;19915;-76
2022/10/22 04:34:48;;;;;;;;;;;13.30;99.90;;;;;;5082647;28;20269;-75
2022/10/22 04:37:14;;;;;;;;;;;13.30;99.90;;;;;;5083403;28;19920;-75
2022/10/22 04:39:40;;;;;;;;;;;13.30;99.90;;;;;;5082728;28;19909;-75
2022/10/22 04:42:05;;;;;;;;;;;13.30;99.90;;;;;;5082719;28;19924;-76
2022/10/22 04:44:31;;;;;;;;;;;13.30;99.90;;;;;;5083521;28;20249;-76
2022/10/22 04:46:57;;;;;;;;;;;13.30;99.90;;;;;;5083189;28;19912;-76
2022/10/22 04:49:22;;;;;;;;;;;13.40;99.90;;;;;;5094941;28;19919;-76
2022/10/22 04:51:48;;;;;;;;;;;13.30;99.90;;;;;;5096634;28;19947;-75
2022/10/22 04:54:14;;;;;;;;;;;13.40;99.90;;;;;;5086411;28;20199;-75
2022/10/22 04:56:39;;;;;;;;;;;13.30;99.90;;;;;;5081434;28;20134;-75
2022/10/22 04:59:06;;;;;;;;;;;13.30;99.90;;;;;;5081454;28;21059;-75
2022/10/22 05:01:36;;;;;;;;;;;13.40;99.90;;;;;;5090024;28;19916;-75
2022/10/22 05:04:02;;;;;;;;;;;13.40;99.90;;;;;;5083786;28;20115;-75
2022/10/22 05:06:29;;;;;;;;;;;13.30;99.90;;;;;;5093325;28;20231;-75
2022/10/22 05:08:56;;;;;;;;;;;13.30;99.90;;;;;;5085074;28;19920;-75
2022/10/22 05:11:26;;;;;;;;;;;13.30;99.90;;;;;;5081575;28;20344;-75
2022/10/22 05:13:52;;;;;;;;;;;13.30;99.90;;;;;;5066889;28;19927;-75
2022/10/22 05:16:18;;;;;;;;;;;13.30;99.90;;;;;;5088511;28;19912;-75
2022/10/22 05:18:44;;;;;;;;;;;13.30;99.90;;;;;;5087491;28;19912;-75
2022/10/22 05:21:11;;;;;;;;;;;13.30;99.90;;;;;;5083631;28;19926;-75
2022/10/22 05:23:37;;;;;;;;;;;13.30;99.90;;;;;;5088550;28;19994;-74
2022/10/22 05:26:03;;;;;;;;;;;13.20;99.90;;;;;;5081977;28;19924;-75
2022/10/22 05:28:29;;;;;;;;;;;13.20;99.90;;;;;;5099009;28;19919;-75
2022/10/22 05:30:55;;;;;;;;;;;13.20;99.90;;;;;;5088217;28;19920;-75
2022/10/22 05:33:21;;;;;;;;;;;13.20;99.90;;;;;;5074504;28;19912;-75
2022/10/22 05:35:50;;;;;;;;;;;13.10;99.90;;;;;;5095403;28;20570;-75
2022/10/22 05:38:16;;;;;;;;;;;13.10;99.90;;;;;;5084857;28;19916;-75
2022/10/22 05:40:41;;;;;;;;;;;13.10;99.90;;;;;;5092071;28;19920;-74
2022/10/22 05:43:07;;;;;;;;;;;13.00;99.90;;;;;;5086457;28;19912;-75
2022/10/22 05:45:36;;;;;;;;;;;13.00;99.90;;;;;;5078801;28;19932;-75
2022/10/22 05:48:02;;;;;;;;;;;13.00;99.90;;;;;;5056720;28;19916;-75
2022/10/22 05:50:28;;;;;;;;;;;13.00;99.90;;;;;;5082045;28;20084;-75
2022/10/22 05:52:54;;;;;;;;;;;13.00;99.90;;;;;;5079593;28;20104;-75
2022/10/22 05:55:19;;;;;;;;;;;13.00;99.90;;;;;;5081283;28;19912;-76
2022/10/22 05:57:45;;;;;;;;;;;13.00;99.90;;;;;;5092511;28;19927;-75
2022/10/22 06:00:11;;;;;;;;;;;13.00;99.90;;;;;;5084731;28;19916;-74
2022/10/22 06:02:37;;;;;;;;;;;13.00;99.90;;;;;;5082266;28;20226;-75
2022/10/22 06:05:02;;;;;;;;;;;12.90;99.90;;;;;;5070270;28;19933;-75
2022/10/22 06:07:28;;;;;;;;;;;12.90;99.90;;;;;;5083192;28;19948;-74
2022/10/22 06:09:54;;;;;;;;;;;12.90;99.90;;;;;;5064547;28;19909;-75
2022/10/22 06:12:19;;;;;;;;;;;12.90;99.90;;;;;;5082440;28;19915;-75
2022/10/22 06:14:45;;;;;;;;;;;12.90;99.90;;;;;;5082203;28;19908;-75
2022/10/22 06:17:11;;;;;;;;;;;12.90;99.90;;;;;;5080852;28;19916;-75
2022/10/22 06:19:36;;;;;;;;;;;13.00;99.90;;;;;;5081283;28;19920;-74
2022/10/22 06:22:03;;;;;;;;;;;12.90;99.90;;;;;;5082809;28;20114;-74
2022/10/22 06:24:29;;;;;;;;;;;13.00;99.90;;;;;;5085158;28;19916;-75
2022/10/22 06:26:54;;;;;;;;;;;13.00;99.90;;;;;;5086007;28;19913;-74
2022/10/22 06:29:20;;;;;;;;;;;13.00;99.90;;;;;;5082249;28;19920;-75
2022/10/22 06:31:45;;;;;;;;;;;13.00;99.90;;;;;;5081462;28;20230;-78
2022/10/22 06:34:12;;;;;;;;;;;13.00;99.90;;;;;;5095960;28;19936;-74
2022/10/22 06:36:38;;;;;;;;;;;13.00;99.90;;;;;;5081857;28;19912;-75
2022/10/22 06:39:04;;;;;;;;;;;13.00;99.90;;;;;;5087790;28;20279;-74
2022/10/22 06:41:29;;;;;;;;;;;13.00;99.90;;;;;;5090289;28;20227;-75
2022/10/22 06:43:56;;;;;;;;;;;13.00;99.90;;;;;;5095193;28;19915;-74
2022/10/22 06:46:21;;;;;;;;;;;12.90;99.90;;;;;;5093146;28;19920;-74
2022/10/22 06:48:52;;;;;;;;;;;13.00;99.90;;;;;;5096026;28;19951;-75
2022/10/22 06:51:18;;;;;;;;;;;13.00;99.90;;;;;;5106255;28;20211;-75
2022/10/22 06:53:43;;;;;;;;;;;13.00;99.90;;;;;;5105004;28;19915;-74
2022/10/22 06:56:11;;;;;;;;;;;13.00;99.90;;;;;;5105781;28;19975;-75
2022/10/22 06:58:36;;;;;;;;;;;13.00;99.90;;;;;;5088097;28;19920;-75
2022/10/22 07:01:07;;;;;;;;;;;13.00;99.90;;;;;;5088413;28;19954;-74
2022/10/22 07:03:32;;;;;;;;;;;13.00;99.90;;;;;;5095579;28;19912;-75
2022/10/22 07:06:02;;;;;;;;;;;13.00;99.90;;;;;;5095820;28;19939;-74
2022/10/22 07:08:27;;;;;;;;;;;13.00;99.90;;;;;;5090647;28;20149;-75
2022/10/22 07:10:53;;;;;;;;;;;13.00;99.90;;;;;;5094225;28;19951;-75
2022/10/22 07:13:19;;;;;;;;;;;13.10;99.90;;;;;;5090873;28;19908;-75
2022/10/22 07:15:45;;;;;;;;;;;13.10;99.90;;;;;;5083818;28;19916;-75
2022/10/22 07:18:10;;;;;;;;;;;13.10;99.90;;;;;;5083825;28;19940;-74
2022/10/22 07:20:36;;;;;;;;;;;13.00;99.90;;;;;;5085202;28;19920;-75
2022/10/22 07:23:02;;;;;;;;;;;13.10;99.90;;;;;;5085239;28;19909;-75
2022/10/22 07:25:27;;;;;;;;;;;13.00;99.90;;;;;;5084160;28;19943;-75
2022/10/22 07:27:53;;;;;;;;;;;13.00;99.90;;;;;;5084941;28;19912;-75
2022/10/22 07:30:19;;;;;;;;;;;13.00;99.90;;;;;;5084623;28;19983;-75
2022/10/22 07:32:44;;;;;;;;;;;13.00;99.90;;;;;;5084902;28;19908;-75
2022/10/22 07:35:10;;;;;;;;;;;13.00;99.90;;;;;;5062811;28;19979;-75
2022/10/22 07:37:36;;;;;;;;;;;13.00;99.90;;;;;;5079013;28;20073;-75
2022/10/22 07:40:01;;;;;;;;;;;13.00;99.90;;;;;;5069831;28;19947;-74
2022/10/22 07:42:27;;;;;;;;;;;13.10;99.90;;;;;;5078804;28;19912;-74
2022/10/22 07:44:53;;;;;;;;;;;13.00;99.90;;;;;;5083577;28;19952;-74
2022/10/22 07:47:18;;;;;;;;;;;13.10;99.90;;;;;;5079763;28;20152;-75
2022/10/22 07:49:44;;;;;;;;;;;13.20;99.90;;;;;;5083555;28;20111;-75
2022/10/22 07:52:09;;;;;;;;;;;13.20;99.90;;;;;;5064240;28;19908;-75
2022/10/22 07:54:35;;;;;;;;;;;13.30;99.90;;;;;;5084438;28;19920;-75
2022/10/22 07:57:01;;;;;;;;;;;13.30;99.90;;;;;;5086737;28;19974;-75
2022/10/22 07:59:26;;;;;;;;;;;13.40;99.90;;;;;;5090246;28;19928;-75
2022/10/22 08:01:52;;;;;;;;;;;13.50;99.90;;;;;;5089315;28;19909;-75
2022/10/22 08:04:18;;;;;;;;;;;13.60;99.90;;;;;;5088736;28;20226;-75
2022/10/22 08:06:43;;;;;;;;;;;13.60;99.90;;;;;;5083997;28;20119;-75
2022/10/22 08:09:09;;;;;;;;;;;13.70;99.90;;;;;;5084126;28;19908;-75
2022/10/22 08:11:34;;;;;;;;;;;13.70;99.90;;;;;;5084268;28;19954;-75
2022/10/22 08:14:00;;;;;;;;;;;13.80;99.90;;;;;;5084080;28;19916;-74
2022/10/22 08:16:26;;;;;;;;;;;13.80;99.90;;;;;;5078796;28;19930;-75
2022/10/22 08:18:51;;;;;;;;;;;13.80;99.90;;;;;;5083840;28;20224;-75
2022/10/22 08:21:17;;;;;;;;;;;13.80;99.90;;;;;;5085026;28;19975;-75
2022/10/22 08:23:43;;;;;;;;;;;13.80;99.90;;;;;;5090244;28;20139;-76
2022/10/22 08:26:09;;;;;;;;;;;13.80;99.90;;;;;;5092040;28;20115;-75
2022/10/22 08:28:36;;;;;;;;;;;13.90;99.90;;;;;;5093311;28;20291;-75
2022/10/22 08:31:06;;;;;;;;;;;13.90;99.90;;;;;;5091216;28;19916;-75
2022/10/22 08:33:32;;;;;;;;;;;13.90;99.90;;;;;;5076522;28;19922;-74
2022/10/22 08:35:57;;;;;;;;;;;13.90;99.90;;;;;;5080905;28;19931;-75
2022/10/22 08:38:23;;;;;;;;;;;13.90;99.90;;;;;;5082461;28;19913;-76
2022/10/22 08:40:51;;;;;;;;;;;14.00;99.90;;;;;;5086809;28;19947;-76
2022/10/22 08:43:49;;;;;;;;;;;14.00;99.90;;;;;;5065808;28;20150;-75
2022/10/22 08:46:36;;;;;;;;;;;14.10;99.90;;;;;;5068302;28;19912;-75
2022/10/22 08:49:03;;;;;;;;;;;14.10;99.90;;;;;;5083442;28;19959;-76
2022/10/22 08:51:31;;;;;;;;;;;14.10;99.90;;;;;;5093022;28;19920;-75
2022/10/22 08:54:29;;;;;;;;;;;14.20;99.90;;;;;;5097203;28;19946;-75
2022/10/22 08:57:19;;;;;;;;;;;14.20;99.90;;;;;;5079208;28;19919;-76
2022/10/22 09:00:13;;;;;;;;;;;14.30;99.90;;;;;;5055969;28;19954;-76
2022/10/22 09:02:48;;;;;;;;;;;14.40;99.90;;;;;;5081051;28;19913;-75
2022/10/22 09:05:32;;;;;;;;;;;14.60;99.90;;;;;;5081748;28;19923;-76
2022/10/22 09:07:57;;;;;;;;;;;14.60;99.90;;;;;;5081419;28;19912;-75
2022/10/22 09:10:26;;;;;;;;;;;14.80;99.90;;;;;;5082015;28;20014;-76
2022/10/22 09:12:51;;;;;;;;;;;14.80;99.90;;;;;;5065483;28;19947;-76
2022/10/22 09:15:17;;;;;;;;;;;14.90;99.90;;;;;;5081328;28;19908;-76
2022/10/22 09:18:22;;;;;;;;;;;15.00;99.90;;;;;;5064793;28;19917;-76
2022/10/22 09:20:52;;;;;;;;;;;15.10;99.90;;;;;;5072920;28;19920;-76
2022/10/22 09:23:32;;;;;;;;;;;15.20;99.90;;;;;;5081742;28;19913;-76
2022/10/22 09:25:58;;;;;;;;;;;15.20;99.90;;;;;;5081847;28;20262;-76
2022/10/22 09:28:24;;;;;;;;;;;15.30;99.90;;;;;;5081490;28;19912;-76
2022/10/22 09:30:50;;;;;;;;;;;15.40;99.90;;;;;;5082422;28;19946;-76
2022/10/22 09:33:25;;;;;;;;;;;15.60;99.90;;;;;;5081584;28;20138;-76
2022/10/22 09:35:53;;;;;;;;;;;15.70;99.90;;;;;;5081665;28;20201;-76
2022/10/22 09:38:22;;;;;;;;;;;15.80;99.90;;;;;;5081510;28;19912;-76
2022/10/22 09:40:49;;;;;;;;;;;15.90;99.90;;;;;;5081508;28;19932;-76
2022/10/22 09:43:15;;;;;;;;;;;15.90;99.90;;;;;;5081701;28;19947;-76
2022/10/22 09:45:41;;;;;;;;;;;15.90;99.90;;;;;;5064456;28;20453;-76
2022/10/22 09:48:13;;;;;;;;;;;16.00;99.90;;;;;;5081290;28;19920;-76
2022/10/22 09:50:46;;;;;;;;;;;16.10;99.90;;;;;;5082651;28;20158;-76
2022/10/22 09:53:19;;;;;;;;;;;16.20;99.90;;;;;;5081832;28;19916;-76
2022/10/22 09:55:52;;;;;;;;;;;16.30;99.90;;;;;;5082628;28;19928;-76
2022/10/22 09:58:18;;;;;;;;;;;16.40;99.90;;;;;;5080447;28;19916;-76
2022/10/22 10:00:46;;;;;;;;;;;16.50;99.90;;;;;;5080839;28;19908;-76
2022/10/22 10:03:22;;;;;;;;;;;16.70;99.90;;;;;;5081631;28;19916;-76
2022/10/22 10:05:50;;;;;;;;;;;16.80;99.90;;;;;;5081512;28;19909;-76
2022/10/22 10:08:16;;;;;;;;;;;17.10;99.90;;;;;;5081069;28;20384;-76
2022/10/22 10:11:12;;;;;;;;;;;17.20;99.90;;;;;;5081480;28;19923;-76
2022/10/22 10:13:53;;;;;;;;;;;17.40;99.90;;;;;;5084189;28;19917;-76
2022/10/22 10:16:28;;;;;;;;;;;17.60;99.90;;;;;;5080723;28;19909;-76
2022/10/22 10:19:05;;;;;;;;;;;17.70;99.90;;;;;;5082312;28;19909;-77
2022/10/22 10:21:46;;;;;;;;;;;17.70;99.90;;;;;;5082423;28;20409;-77
2022/10/22 10:24:15;;;;;;;;;;;17.70;99.90;;;;;;5081348;28;19916;-76
2022/10/22 10:27:01;;;;;;;;;;;17.80;99.90;;;;;;5084161;28;19912;-77
2022/10/22 10:29:34;;;;;;;;;;;18.00;99.90;;;;;;5081587;28;19924;-76
2022/10/22 10:32:03;;;;;;;;;;;18.20;99.90;;;;;;5079758;28;19955;-76
2022/10/22 10:34:36;;;;;;;;;;;18.40;99.90;;;;;;5080981;28;20115;-77
2022/10/22 10:37:08;;;;;;;;;;;18.50;99.90;;;;;;5080702;28;20111;-77
2022/10/22 10:39:47;;;;;;;;;;;18.70;99.90;;;;;;5081959;28;20246;-77
2022/10/22 10:42:19;;;;;;;;;;;18.90;99.90;;;;;;5081023;28;19908;-75
2022/10/22 10:44:52;;;;;;;;;;;19.10;99.90;;;;;;5082189;28;19909;-76
2022/10/22 10:47:29;;;;;;;;;;;19.40;99.90;;;;;;5081542;28;19958;-77
2022/10/22 10:50:01;;;;;;;;;;;19.70;99.90;;;;;;5081957;28;19915;-76
2022/10/22 10:52:38;;;;;;;;;;;20.00;99.90;;;;;;5064710;28;20176;-77
2022/10/22 10:55:16;;;;;;;;;;;20.10;99.90;;;;;;5082088;28;20468;-77
2022/10/22 10:57:49;;;;;;;;;;;20.00;99.90;;;;;;5081690;28;19916;-77
2022/10/22 11:00:17;;;;;;;;;;;19.90;99.90;;;;;;5080737;28;19908;-77
2022/10/22 11:03:30;;;;;;;;;;;19.70;99.90;;;;;;5080386;28;19908;-76
2022/10/22 11:06:00;;;;;;;;;;;19.60;99.90;;;;;;5059893;28;19909;-77
2022/10/22 11:08:29;;;;;;;;;;;19.30;99.90;;;;;;5060610;28;19912;-77
2022/10/22 11:11:05;;;;;;;;;;;19.10;99.90;;;;;;5074387;28;20083;-77
2022/10/22 11:13:42;;;;;;;;;;;19.00;99.90;;;;;;5067937;28;19908;-77
2022/10/22 11:16:15;;;;;;;;;;;18.90;99.90;;;;;;5084062;28;19908;-77
2022/10/22 11:18:43;;;;;;;;;;;18.80;99.90;;;;;;5084105;28;19916;-75
2022/10/22 11:21:20;;;;;;;;;;;18.80;99.90;;;;;;5070246;28;20329;-77
2022/10/22 11:24:01;;;;;;;;;;;18.80;99.90;;;;;;5083355;28;19948;-76
2022/10/22 11:26:30;;;;;;;;;;;19.10;99.90;;;;;;5087550;28;19928;-81
2022/10/22 11:28:57;;;;;;;;;;;19.40;99.90;;;;;;5089947;28;19912;-79
2022/10/22 11:31:24;;;;;;;;;;;19.50;99.90;;;;;;5081904;28;19908;-81
2022/10/22 11:34:12;;;;;;;;;;;19.60;99.90;;;;;;5077791;28;19959;-81
2022/10/22 11:36:38;;;;;;;;;;;19.50;99.90;;;;;;5079530;28;19943;-74
2022/10/22 11:39:04;;;;;;;;;;;19.40;99.90;;;;;;5087903;28;20241;-85
2022/10/22 11:41:31;;;;;;;;;;;19.30;99.90;;;;;;5086966;28;19943;-81
2022/10/22 11:44:09;;;;;;;;;;;19.20;99.90;;;;;;5073607;28;19927;-82
2022/10/22 11:46:46;;;;;;;;;;;19.20;99.90;;;;;;5091982;28;19949;-82
2022/10/22 11:49:11;;;;;;;;;;;19.10;99.90;;;;;;5092390;28;19920;-81
2022/10/22 11:51:38;;;;;;;;;;;19.10;99.90;;;;;;5099939;28;19950;-84
2022/10/22 11:54:36;;;;;;;;;;;19.30;99.90;;;;;;5082179;28;19912;-84
2022/10/22 11:57:13;;;;;;;;;;;20.20;99.90;;;;;;5100085;28;19920;-75
2022/10/22 11:59:56;;;;;;;;;;;21.50;99.90;;;;;;5089676;28;19909;-86
2022/10/22 12:02:44;;;;;;;;;;;22.90;99.90;;;;;;5084982;28;19917;-81
2022/10/22 12:05:22;;;;;;;;;;;24.30;99.90;;;;;;5065392;28;19926;-88
2022/10/22 12:08:15;;;;;;;;;;;25.40;99.90;;;;;;5095720;28;19916;-80
2022/10/22 12:10:59;;;;;;;;;;;26.10;99.90;;;;;;5074190;28;19986;-80
2022/10/22 12:14:02;;;;;;;;;;;26.20;99.90;;;;;;5083023;28;19954;-86
2022/10/22 12:16:37;;;;;;;;;;;26.70;92.10;;;;;;5091651;28;19908;-78
2022/10/22 12:19:29;;;;;;;;;;;28.00;83.70;;;;;;5089195;28;19958;-76
2022/10/22 12:21:56;;;;;;;;;;;28.50;39.00;;;;;;5090620;28;19908;-81
2022/10/22 12:24:23;;;;;;;;;;;28.90;42.80;;;;;;5093776;28;19946;-78
2022/10/22 12:26:51;;;;;;;;;;;29.40;21.70;;;;;;5090667;28;19912;-80
2022/10/22 12:29:17;;;;;;;;;;;29.70;25.30;;;;;;5084778;28;19915;-74
2022/10/22 12:31:44;;;;;;;;;;;29.60;31.70;;;;;;5091802;28;19919;-78
2022/10/22 12:34:17;;;;;;;;;;;30.00;21.90;;;;;;5085507;28;19908;-76
2022/10/22 12:36:43;;;;;;;;;;;30.70;7.30;;;;;;5080435;28;19920;-72
2022/10/22 12:39:17;;;;;;;;;;;30.10;7.00;;;;;;5069318;28;20214;-73
2022/10/22 12:41:43;;;;;;;;;;;30.10;11.70;;;;;;5079160;28;19908;-73
2022/10/22 12:44:10;;;;;;;;;;;30.50;14.10;;;;;;5065702;28;19963;-72
2022/10/22 12:46:36;;;;;;;;;;;31.60;4.00;;;;;;5081721;28;19943;-76
2022/10/22 12:49:04;;;;;;;;;;;32.20;1.00;;;;;;5065458;28;19920;-75
2022/10/22 12:51:30;;;;;;;;;;;31.80;1.00;;;;;;5065852;28;20207;-76
2022/10/22 12:53:59;;;;;;;;;;;32.20;1.10;;;;;;5065511;28;19945;-76
2022/10/22 12:56:30;;;;;;;;;;;33.10;1.00;;;;;;5065562;28;20338;-75
2022/10/22 12:58:57;;;;;;;;;;;34.30;1.00;;;;;;5082977;28;19978;-75
2022/10/22 13:01:24;;;;;;;;;;;35.00;1.00;;;;;;5064885;28;20203;-75
2022/10/22 13:04:01;;;;;;;;;;;35.20;1.00;;;;;;5065284;28;19953;-75
2022/10/22 13:06:27;;;;;;;;;;;35.30;1.00;;;;;;5081626;28;19916;-75
2022/10/22 13:08:58;;;;;;;;;;;35.70;1.00;;;;;;5081985;28;19908;-75
2022/10/22 13:11:48;;;;;;;;;;;35.90;2.60;;;;;;5083063;28;19908;-75
2022/10/22 13:14:25;;;;;;;;;;;35.20;4.70;;;;;;5081906;28;19908;-75
2022/10/22 13:17:10;;;;;;;;;;;35.10;5.30;;;;;;5081328;28;20262;-75
2022/10/22 13:19:41;;;;;;;;;;;34.90;1.00;;;;;;5081598;28;19971;-75
2022/10/22 13:22:22;;;;;;;;;;;35.10;1.00;;;;;;5091754;28;19912;-75
2022/10/22 13:24:49;;;;;;;;;;;35.50;1.00;;;;;;5103231;28;20106;-75
2022/10/22 13:27:14;;;;;;;;;;;35.60;1.00;;;;;;5102685;28;19923;-75
2022/10/22 13:29:40;;;;;;;;;;;35.60;1.00;;;;;;5097183;28;19908;-75
2022/10/22 13:32:32;;;;;;;;;;;35.90;1.00;;;;;;5080907;28;19979;-75
2022/10/22 13:35:01;;;;;;;;;;;36.30;1.20;;;;;;5067192;28;19909;-75
2022/10/22 13:37:27;;;;;;;;;;;37.00;1.00;;;;;;5081131;28;19920;-75
2022/10/22 13:39:53;;;;;;;;;;;37.10;1.00;;;;;;5081172;28;19927;-76
2022/10/22 13:42:18;;;;;;;;;;;37.30;1.00;;;;;;5081586;28;19927;-76
2022/10/22 13:44:44;;;;;;;;;;;37.80;1.00;;;;;;5082416;28;19916;-75
2022/10/22 13:47:25;;;;;;;;;;;38.10;1.00;;;;;;5080745;28;19920;-76
2022/10/22 13:49:52;;;;;;;;;;;37.40;1.00;;;;;;5081532;28;19938;-76
2022/10/22 13:52:25;;;;;;;;;;;35.80;7.10;;;;;;5081077;28;19915;-76
2022/10/22 13:54:50;;;;;;;;;;;34.70;10.70;;;;;;5065241;28;20226;-76
2022/10/22 13:57:16;;;;;;;;;;;33.00;10.00;;;;;;5080952;28;19916;-76
2022/10/22 13:59:41;;;;;;;;;;;31.30;15.90;;;;;;5082205;28;19916;-76
2022/10/22 14:02:10;;;;;;;;;;;29.60;21.30;;;;;;5082180;28;20203;-76
2022/10/22 14:04:36;;;;;;;;;;;28.00;26.50;;;;;;5081254;28;19962;-76
2022/10/22 14:07:01;;;;;;;;;;;26.60;36.00;;;;;;5080717;28;20219;-75
2022/10/22 14:09:27;;;;;;;;;;;25.50;49.50;;;;;;5082373;28;20275;-75
2022/10/22 14:11:53;;;;;;;;;;;24.60;50.00;;;;;;5082248;28;19908;-75
2022/10/22 14:14:18;;;;;;;;;;;23.80;61.80;;;;;;5081944;28;19914;-74
2022/10/22 14:16:44;;;;;;;;;;;23.20;71.00;;;;;;5080248;28;19909;-74
2022/10/22 14:19:13;;;;;;;;;;;22.70;79.20;;;;;;5081115;28;19912;-74
2022/10/22 14:21:39;;;;;;;;;;;22.30;90.80;;;;;;5082227;28;19915;-75
2022/10/22 14:24:05;;;;;;;;;;;21.90;94.80;;;;;;5082191;28;19939;-74
2022/10/22 14:26:32;;;;;;;;;;;21.60;98.60;;;;;;5080386;28;19909;-75
2022/10/22 14:28:58;;;;;;;;;;;21.30;99.60;;;;;;5081047;28;19915;-74
2022/10/22 14:31:24;;;;;;;;;;;21.10;99.90;;;;;;5080540;28;19931;-74
2022/10/22 14:33:49;;;;;;;;;;;21.00;99.90;;;;;;5080972;28;20227;-74